sensor_id;sensor_type;location;lat;lon;timestamp;pressure;altitude;pressure_sealevel;temperature;humidity
42169;BME280;27838;43.858;25.974;2023-04-01T00:01:14;100114.47;;;16.55;43.74
42169;BME280;27838;43.858;25.974;2023-04-01T00:03:41;100112.81;;;16.51;43.66
42169;BME280;27838;43.858;25.974;2023-04-01T00:06:11;100104.19;;;16.47;44.37
42169;BME280;27838;43.858;25.974;2023-04-01T00:08:38;100107.84;;;16.43;44.64
42169;BME280;27838;43.858;25.974;2023-04-01T00:11:05;100081.91;;;16.32;45.09
42169;BME280;27838;43.858;25.974;2023-04-01T00:13:32;100086.13;;;16.36;45.28
42169;BME280;27838;43.858;25.974;2023-04-01T00:15:58;100082.72;;;16.34;45.69
42169;BME280;27838;43.858;25.974;2023-04-01T00:18:26;100081.78;;;16.35;45.37
42169;BME280;27838;43.858;25.974;2023-04-01T00:20:53;100087.97;;;16.34;44.98
42169;BME280;27838;43.858;25.974;2023-04-01T00:23:20;100082.72;;;16.34;44.42
42169;BME280;27838;43.858;25.974;2023-04-01T00:25:47;100085.13;;;16.40;43.56
42169;BME280;27838;43.858;25.974;2023-04-01T00:28:19;100073.00;;;16.36;44.20
42169;BME280;27838;43.858;25.974;2023-04-01T00:30:46;100068.53;;;16.38;43.83
42169;BME280;27838;43.858;25.974;2023-04-01T00:33:13;100062.53;;;16.35;43.95
42169;BME280;27838;43.858;25.974;2023-04-01T00:35:40;100066.84;;;16.37;43.92
42169;BME280;27838;43.858;25.974;2023-04-01T00:38:07;100066.13;;;16.32;44.93
42169;BME280;27838;43.858;25.974;2023-04-01T00:40:36;100065.25;;;16.32;45.27
42169;BME280;27838;43.858;25.974;2023-04-01T00:43:08;100067.94;;;16.30;45.46
42169;BME280;27838;43.858;25.974;2023-04-01T00:45:38;100052.38;;;16.24;45.45
42169;BME280;27838;43.858;25.974;2023-04-01T00:48:32;100048.06;;;16.21;45.93
42169;BME280;27838;43.858;25.974;2023-04-01T00:51:35;100038.63;;;16.16;44.68
42169;BME280;27838;43.858;25.974;2023-04-01T00:54:04;100029.28;;;16.07;43.99
42169;BME280;27838;43.858;25.974;2023-04-01T00:56:36;100036.91;;;16.15;43.88
42169;BME280;27838;43.858;25.974;2023-04-01T00:59:08;100024.56;;;16.17;43.96
42169;BME280;27838;43.858;25.974;2023-04-01T01:01:37;100022.75;;;16.19;43.92
42169;BME280;27838;43.858;25.974;2023-04-01T01:04:03;100031.47;;;16.19;43.67
42169;BME280;27838;43.858;25.974;2023-04-01T01:06:37;100028.81;;;16.21;43.27
42169;BME280;27838;43.858;25.974;2023-04-01T01:09:18;100023.44;;;16.24;43.50
42169;BME280;27838;43.858;25.974;2023-04-01T01:12:07;100013.72;;;16.26;43.55
42169;BME280;27838;43.858;25.974;2023-04-01T01:25:32;100013.97;;;16.20;43.61
42169;BME280;27838;43.858;25.974;2023-04-01T01:31:04;100006.94;;;16.20;43.07
42169;BME280;27838;43.858;25.974;2023-04-01T01:33:45;100009.31;;;16.27;42.97
42169;BME280;27838;43.858;25.974;2023-04-01T01:36:15;99980.03;;;16.12;42.92
42169;BME280;27838;43.858;25.974;2023-04-01T01:38:44;99991.94;;;16.22;43.18
42169;BME280;27838;43.858;25.974;2023-04-01T01:41:15;99985.09;;;16.18;43.25
42169;BME280;27838;43.858;25.974;2023-04-01T01:43:45;99982.84;;;16.08;43.40
42169;BME280;27838;43.858;25.974;2023-04-01T01:46:17;99979.50;;;16.02;43.24
42169;BME280;27838;43.858;25.974;2023-04-01T01:48:47;99975.44;;;15.94;43.54
42169;BME280;27838;43.858;25.974;2023-04-01T01:51:14;99973.00;;;15.88;43.60
42169;BME280;27838;43.858;25.974;2023-04-01T01:53:41;99972.09;;;15.89;43.96
42169;BME280;27838;43.858;25.974;2023-04-01T01:56:09;99969.34;;;15.92;43.66
42169;BME280;27838;43.858;25.974;2023-04-01T01:58:45;99967.06;;;15.81;44.04
42169;BME280;27838;43.858;25.974;2023-04-01T02:01:17;99957.50;;;15.80;43.65
42169;BME280;27838;43.858;25.974;2023-04-01T02:03:46;99959.19;;;15.81;43.79
42169;BME280;27838;43.858;25.974;2023-04-01T02:06:17;99956.47;;;15.84;43.73
42169;BME280;27838;43.858;25.974;2023-04-01T02:09:07;99946.81;;;15.84;44.01
42169;BME280;27838;43.858;25.974;2023-04-01T02:14:09;99948.41;;;15.90;43.56
42169;BME280;27838;43.858;25.974;2023-04-01T02:16:56;99941.41;;;15.89;43.51
42169;BME280;27838;43.858;25.974;2023-04-01T02:19:27;99934.31;;;15.91;43.36
42169;BME280;27838;43.858;25.974;2023-04-01T02:21:59;99931.66;;;15.93;43.10
42169;BME280;27838;43.858;25.974;2023-04-01T02:24:30;99937.47;;;16.02;43.35
42169;BME280;27838;43.858;25.974;2023-04-01T02:26:57;99943.56;;;16.03;43.28
42169;BME280;27838;43.858;25.974;2023-04-01T02:29:26;99937.38;;;16.04;43.57
42169;BME280;27838;43.858;25.974;2023-04-01T02:31:54;99924.13;;;16.07;44.16
42169;BME280;27838;43.858;25.974;2023-04-01T02:34:22;99932.06;;;16.05;44.47
42169;BME280;27838;43.858;25.974;2023-04-01T02:36:50;99924.38;;;16.01;45.22
42169;BME280;27838;43.858;25.974;2023-04-01T02:39:18;99921.13;;;15.93;46.17
42169;BME280;27838;43.858;25.974;2023-04-01T02:41:45;99903.97;;;15.82;46.35
42169;BME280;27838;43.858;25.974;2023-04-01T02:44:13;99911.06;;;15.80;46.98
42169;BME280;27838;43.858;25.974;2023-04-01T02:46:40;99912.97;;;15.75;46.95
42169;BME280;27838;43.858;25.974;2023-04-01T02:49:07;99902.53;;;15.72;46.46
42169;BME280;27838;43.858;25.974;2023-04-01T02:51:34;99903.50;;;15.70;47.41
42169;BME280;27838;43.858;25.974;2023-04-01T02:54:01;99914.13;;;15.66;47.40
42169;BME280;27838;43.858;25.974;2023-04-01T02:56:28;99909.09;;;15.60;47.02
42169;BME280;27838;43.858;25.974;2023-04-01T02:58:55;99906.38;;;15.62;47.55
42169;BME280;27838;43.858;25.974;2023-04-01T03:01:22;99897.69;;;15.60;47.52
42169;BME280;27838;43.858;25.974;2023-04-01T03:03:49;99902.09;;;15.59;47.89
42169;BME280;27838;43.858;25.974;2023-04-01T03:06:16;99903.13;;;15.55;47.88
42169;BME280;27838;43.858;25.974;2023-04-01T03:08:43;99895.34;;;15.52;47.69
42169;BME280;27838;43.858;25.974;2023-04-01T03:11:10;99880.00;;;15.40;48.01
42169;BME280;27838;43.858;25.974;2023-04-01T03:13:37;99898.16;;;15.46;47.96
42169;BME280;27838;43.858;25.974;2023-04-01T03:16:04;99893.94;;;15.42;48.51
42169;BME280;27838;43.858;25.974;2023-04-01T03:18:30;99897.44;;;15.41;47.93
42169;BME280;27838;43.858;25.974;2023-04-01T03:20:57;99901.09;;;15.37;48.41
42169;BME280;27838;43.858;25.974;2023-04-01T03:23:24;99889.78;;;15.35;47.95
42169;BME280;27838;43.858;25.974;2023-04-01T03:25:50;99875.50;;;15.17;48.59
42169;BME280;27838;43.858;25.974;2023-04-01T03:28:17;99893.09;;;15.13;48.04
42169;BME280;27838;43.858;25.974;2023-04-01T03:30:43;99902.13;;;15.04;48.06
42169;BME280;27838;43.858;25.974;2023-04-01T03:33:10;99908.44;;;14.99;47.91
42169;BME280;27838;43.858;25.974;2023-04-01T03:35:36;99908.47;;;14.97;47.81
42169;BME280;27838;43.858;25.974;2023-04-01T03:38:03;99899.88;;;14.92;48.14
42169;BME280;27838;43.858;25.974;2023-04-01T03:40:29;99894.88;;;14.84;47.90
42169;BME280;27838;43.858;25.974;2023-04-01T03:42:56;99894.03;;;14.84;48.32
42169;BME280;27838;43.858;25.974;2023-04-01T03:45:22;99887.16;;;14.80;48.49
42169;BME280;27838;43.858;25.974;2023-04-01T03:47:49;99899.38;;;14.81;48.20
42169;BME280;27838;43.858;25.974;2023-04-01T03:50:15;99900.25;;;14.80;48.89
42169;BME280;27838;43.858;25.974;2023-04-01T03:52:42;99889.81;;;14.78;48.43
42169;BME280;27838;43.858;25.974;2023-04-01T03:55:09;99888.91;;;14.79;48.25
42169;BME280;27838;43.858;25.974;2023-04-01T03:57:35;99890.78;;;14.76;48.82
42169;BME280;27838;43.858;25.974;2023-04-01T04:00:02;99897.81;;;14.75;48.52
42169;BME280;27838;43.858;25.974;2023-04-01T04:02:29;99889.88;;;14.77;48.75
42169;BME280;27838;43.858;25.974;2023-04-01T04:04:55;99883.91;;;14.71;48.78
42169;BME280;27838;43.858;25.974;2023-04-01T04:07:22;99882.16;;;14.72;48.64
42169;BME280;27838;43.858;25.974;2023-04-01T04:09:48;99878.63;;;14.73;48.37
42169;BME280;27838;43.858;25.974;2023-04-01T04:12:15;99871.53;;;14.77;48.51
42169;BME280;27838;43.858;25.974;2023-04-01T04:14:41;99862.09;;;14.69;48.30
42169;BME280;27838;43.858;25.974;2023-04-01T04:17:10;99875.16;;;14.71;48.42
42169;BME280;27838;43.858;25.974;2023-04-01T04:19:41;99854.41;;;14.65;48.68
42169;BME280;27838;43.858;25.974;2023-04-01T04:22:08;99864.69;;;14.71;48.84
42169;BME280;27838;43.858;25.974;2023-04-01T04:24:35;99863.88;;;14.69;48.22
42169;BME280;27838;43.858;25.974;2023-04-01T04:27:02;99864.81;;;14.68;48.31
42169;BME280;27838;43.858;25.974;2023-04-01T04:29:29;99857.66;;;14.73;48.75
42169;BME280;27838;43.858;25.974;2023-04-01T04:31:56;99852.56;;;14.67;48.66
42169;BME280;27838;43.858;25.974;2023-04-01T04:34:22;99871.75;;;14.69;48.63
42169;BME280;27838;43.858;25.974;2023-04-01T04:36:49;99878.50;;;14.76;48.21
42169;BME280;27838;43.858;25.974;2023-04-01T04:39:15;99874.91;;;14.80;48.17
42169;BME280;27838;43.858;25.974;2023-04-01T04:41:42;99870.47;;;14.82;48.59
42169;BME280;27838;43.858;25.974;2023-04-01T04:44:09;99876.53;;;14.84;48.04
42169;BME280;27838;43.858;25.974;2023-04-01T04:46:35;99870.22;;;14.90;48.37
42169;BME280;27838;43.858;25.974;2023-04-01T04:49:02;99857.97;;;14.90;48.10
42169;BME280;27838;43.858;25.974;2023-04-01T04:51:29;99859.59;;;14.95;48.35
42169;BME280;27838;43.858;25.974;2023-04-01T04:53:55;99860.41;;;14.97;48.92
42169;BME280;27838;43.858;25.974;2023-04-01T04:56:22;99862.94;;;15.00;48.61
42169;BME280;27838;43.858;25.974;2023-04-01T04:58:50;99860.22;;;15.03;48.44
42169;BME280;27838;43.858;25.974;2023-04-01T05:01:17;99855.84;;;15.02;49.17
42169;BME280;27838;43.858;25.974;2023-04-01T05:03:44;99855.84;;;15.02;48.78
42169;BME280;27838;43.858;25.974;2023-04-01T05:06:13;99844.66;;;14.97;49.14
42169;BME280;27838;43.858;25.974;2023-04-01T05:08:41;99850.69;;;14.99;49.12
42169;BME280;27838;43.858;25.974;2023-04-01T05:11:14;99847.97;;;15.02;48.71
42169;BME280;27838;43.858;25.974;2023-04-01T05:13:43;99845.28;;;15.05;48.47
42169;BME280;27838;43.858;25.974;2023-04-01T05:16:15;99842.56;;;15.08;48.74
42169;BME280;27838;43.858;25.974;2023-04-01T05:18:42;99845.84;;;15.13;48.47
42169;BME280;27838;43.858;25.974;2023-04-01T05:21:13;99836.00;;;15.20;48.02
42169;BME280;27838;43.858;25.974;2023-04-01T05:23:39;99835.59;;;15.32;47.33
42169;BME280;27838;43.858;25.974;2023-04-01T05:26:11;99839.69;;;15.41;47.12
42169;BME280;27838;43.858;25.974;2023-04-01T05:28:39;99842.88;;;15.51;46.25
42169;BME280;27838;43.858;25.974;2023-04-01T05:31:06;99841.75;;;15.58;46.22
42169;BME280;27838;43.858;25.974;2023-04-01T05:33:33;99842.25;;;15.69;46.24
42169;BME280;27838;43.858;25.974;2023-04-01T05:36:11;99841.09;;;15.78;46.73
42169;BME280;27838;43.858;25.974;2023-04-01T05:38:38;99840.69;;;15.89;46.97
42169;BME280;27838;43.858;25.974;2023-04-01T05:41:05;99844.78;;;15.97;46.83
42169;BME280;27838;43.858;25.974;2023-04-01T05:43:31;99827.50;;;15.90;48.14
42169;BME280;27838;43.858;25.974;2023-04-01T05:45:58;99842.69;;;16.05;48.40
42169;BME280;27838;43.858;25.974;2023-04-01T05:48:24;99839.16;;;16.07;48.93
42169;BME280;27838;43.858;25.974;2023-04-01T05:50:51;99836.50;;;16.08;49.28
42169;BME280;27838;43.858;25.974;2023-04-01T05:53:18;99825.91;;;16.10;49.52
42169;BME280;27838;43.858;25.974;2023-04-01T05:55:44;99818.03;;;16.10;49.71
42169;BME280;27838;43.858;25.974;2023-04-01T05:58:11;99813.50;;;16.13;49.13
42169;BME280;27838;43.858;25.974;2023-04-01T06:00:37;99817.63;;;16.20;48.35
42169;BME280;27838;43.858;25.974;2023-04-01T06:03:05;99808.59;;;16.28;46.44
42169;BME280;27838;43.858;25.974;2023-04-01T06:05:43;99805.66;;;16.35;45.26
42169;BME280;27838;43.858;25.974;2023-04-01T06:08:12;99801.63;;;16.49;44.49
42169;BME280;27838;43.858;25.974;2023-04-01T06:25:41;99810.66;;;16.87;43.04
42169;BME280;27838;43.858;25.974;2023-04-01T06:28:38;99813.91;;;16.94;42.99
42169;BME280;27838;43.858;25.974;2023-04-01T06:31:18;99815.44;;;16.99;42.86
42169;BME280;27838;43.858;25.974;2023-04-01T06:37:08;99815.03;;;17.09;43.34
42169;BME280;27838;43.858;25.974;2023-04-01T06:40:18;99819.22;;;17.14;43.44
42169;BME280;27838;43.858;25.974;2023-04-01T06:54:06;99800.78;;;17.14;43.91
42169;BME280;27838;43.858;25.974;2023-04-01T06:56:37;99804.09;;;17.20;44.12
42169;BME280;27838;43.858;25.974;2023-04-01T06:59:15;99811.72;;;17.26;44.31
42169;BME280;27838;43.858;25.974;2023-04-01T07:01:52;99813.31;;;17.30;44.33
42169;BME280;27838;43.858;25.974;2023-04-01T07:04:20;99809.75;;;17.31;43.85
42169;BME280;27838;43.858;25.974;2023-04-01T07:07:41;99814.94;;;17.32;44.10
42169;BME280;27838;43.858;25.974;2023-04-01T07:09:41;99820.16;;;17.34;44.26
42169;BME280;27838;43.858;25.974;2023-04-01T07:12:16;99821.94;;;17.33;44.22
42169;BME280;27838;43.858;25.974;2023-04-01T07:14:48;99822.84;;;17.32;44.29
42169;BME280;27838;43.858;25.974;2023-04-01T07:17:25;99813.31;;;17.30;44.04
42169;BME280;27838;43.858;25.974;2023-04-01T07:20:19;99820.28;;;17.31;44.53
42169;BME280;27838;43.858;25.974;2023-04-01T07:22:51;99812.44;;;17.29;44.58
42169;BME280;27838;43.858;25.974;2023-04-01T07:25:22;99823.69;;;17.33;44.39
42169;BME280;27838;43.858;25.974;2023-04-01T07:27:50;99823.69;;;17.33;44.85
42169;BME280;27838;43.858;25.974;2023-04-01T07:30:21;99823.69;;;17.33;45.11
42169;BME280;27838;43.858;25.974;2023-04-01T07:38:36;99827.56;;;17.24;45.16
42169;BME280;27838;43.858;25.974;2023-04-01T07:41:43;99827.50;;;17.26;45.21
42169;BME280;27838;43.858;25.974;2023-04-01T07:44:34;99828.13;;;17.32;44.86
42169;BME280;27838;43.858;25.974;2023-04-01T07:47:16;99821.00;;;17.34;45.28
42169;BME280;27838;43.858;25.974;2023-04-01T07:50:08;99832.88;;;17.45;45.26
42169;BME280;27838;43.858;25.974;2023-04-01T08:14:03;99787.84;;;17.70;43.69
42169;BME280;27838;43.858;25.974;2023-04-01T08:22:15;99782.69;;;17.68;42.73
42169;BME280;27838;43.858;25.974;2023-04-01T08:24:45;99770.53;;;17.64;42.51
42169;BME280;27838;43.858;25.974;2023-04-01T08:30:18;99788.06;;;17.65;42.88
42169;BME280;27838;43.858;25.974;2023-04-01T08:33:04;99784.44;;;17.68;42.82
42169;BME280;27838;43.858;25.974;2023-04-01T08:38:17;99778.13;;;17.72;42.12
42169;BME280;27838;43.858;25.974;2023-04-01T08:40:57;99768.38;;;17.74;41.98
42169;BME280;27838;43.858;25.974;2023-04-01T08:49:13;99783.53;;;17.89;41.14
42169;BME280;27838;43.858;25.974;2023-04-01T09:08:48;99776.41;;;18.10;39.66
42169;BME280;27838;43.858;25.974;2023-04-01T09:17:17;99770.97;;;18.14;40.62
42169;BME280;27838;43.858;25.974;2023-04-01T09:22:47;99764.72;;;18.16;42.05
42169;BME280;27838;43.858;25.974;2023-04-01T09:25:37;99766.13;;;18.23;42.20
42169;BME280;27838;43.858;25.974;2023-04-01T09:28:18;99771.34;;;18.25;42.54
42169;BME280;27838;43.858;25.974;2023-04-01T09:36:47;99769.09;;;18.35;43.28
42169;BME280;27838;43.858;25.974;2023-04-01T09:39:38;99779.44;;;18.39;44.10
42169;BME280;27838;43.858;25.974;2023-04-01T09:44:50;99761.94;;;18.38;44.59
42169;BME280;27838;43.858;25.974;2023-04-01T09:47:34;99756.78;;;18.35;45.07
42169;BME280;27838;43.858;25.974;2023-04-01T09:58:39;99742.41;;;18.60;46.60
42169;BME280;27838;43.858;25.974;2023-04-01T10:31:04;99721.34;;;19.63;43.08
42169;BME280;27838;43.858;25.974;2023-04-01T10:45:58;99718.41;;;19.01;40.41
42169;BME280;27838;43.858;25.974;2023-04-01T11:00:32;99699.50;;;18.01;43.87
42169;BME280;27838;43.858;25.974;2023-04-01T11:04:03;99692.69;;;17.97;44.45
42169;BME280;27838;43.858;25.974;2023-04-01T11:40:03;99644.91;;;18.39;45.58
42169;BME280;27838;43.858;25.974;2023-04-01T11:45:37;99641.44;;;18.39;45.56
42169;BME280;27838;43.858;25.974;2023-04-01T11:48:27;99647.00;;;18.50;45.61
42169;BME280;27838;43.858;25.974;2023-04-01T11:56:53;99633.75;;;18.69;46.00
42169;BME280;27838;43.858;25.974;2023-04-01T12:10:40;99634.13;;;19.14;44.80
42169;BME280;27838;43.858;25.974;2023-04-01T12:18:16;99612.00;;;19.32;44.49
42169;BME280;27838;43.858;25.974;2023-04-01T12:26:46;99612.38;;;19.58;44.05
42169;BME280;27838;43.858;25.974;2023-04-01T12:29:40;99613.72;;;19.65;43.90
42169;BME280;27838;43.858;25.974;2023-04-01T12:43:35;99610.50;;;19.60;43.84
42169;BME280;27838;43.858;25.974;2023-04-01T13:01:39;99614.56;;;19.66;43.95
42169;BME280;27838;43.858;25.974;2023-04-01T13:15:05;99625.22;;;19.48;44.67
42169;BME280;27838;43.858;25.974;2023-04-01T13:29:18;99622.94;;;19.42;44.82
42169;BME280;27838;43.858;25.974;2023-04-01T13:32:05;99616.81;;;19.41;44.93
42169;BME280;27838;43.858;25.974;2023-04-01T13:34:35;99625.72;;;19.39;45.09
42169;BME280;27838;43.858;25.974;2023-04-01T13:43:39;99613.88;;;19.30;45.27
42169;BME280;27838;43.858;25.974;2023-04-01T13:59:38;99603.31;;;19.46;45.01
42169;BME280;27838;43.858;25.974;2023-04-01T14:13:46;99613.19;;;19.42;45.51
42169;BME280;27838;43.858;25.974;2023-04-01T14:22:03;99605.94;;;19.30;47.06
42169;BME280;27838;43.858;25.974;2023-04-01T14:25:03;99599.38;;;19.21;47.57
42169;BME280;27838;43.858;25.974;2023-04-01T14:28:25;99599.19;;;19.09;47.83
42169;BME280;27838;43.858;25.974;2023-04-01T14:39:38;99565.53;;;19.12;49.54
42169;BME280;27838;43.858;25.974;2023-04-01T14:48:34;99557.25;;;19.02;49.27
42169;BME280;27838;43.858;25.974;2023-04-01T14:50:44;99557.44;;;18.99;49.35
42169;BME280;27838;43.858;25.974;2023-04-01T14:56:01;99562.00;;;18.78;49.44
42169;BME280;27838;43.858;25.974;2023-04-01T14:59:01;99556.81;;;18.77;49.53
42169;BME280;27838;43.858;25.974;2023-04-01T15:01:43;99564.13;;;18.72;50.65
42169;BME280;27838;43.858;25.974;2023-04-01T15:07:12;99555.41;;;18.69;50.81
42169;BME280;27838;43.858;25.974;2023-04-01T15:10:01;99555.59;;;18.66;50.77
42169;BME280;27838;43.858;25.974;2023-04-01T15:15:44;99569.25;;;18.40;52.32
42169;BME280;27838;43.858;25.974;2023-04-01T15:27:39;99572.47;;;17.73;54.95
42169;BME280;27838;43.858;25.974;2023-04-01T15:32:46;99571.56;;;17.55;55.48
42169;BME280;27838;43.858;25.974;2023-04-01T15:43:50;99591.16;;;17.69;54.86
42169;BME280;27838;43.858;25.974;2023-04-01T15:49:24;99577.13;;;17.68;55.41
42169;BME280;27838;43.858;25.974;2023-04-01T16:10:35;99614.16;;;17.27;58.21
42169;BME280;27838;43.858;25.974;2023-04-01T16:13:23;99594.81;;;17.28;58.45
42169;BME280;27838;43.858;25.974;2023-04-01T16:16:08;99601.56;;;17.34;58.56
42169;BME280;27838;43.858;25.974;2023-04-01T16:19:03;99604.84;;;17.39;58.70
42169;BME280;27838;43.858;25.974;2023-04-01T16:24:24;99627.97;;;17.51;58.44
42169;BME280;27838;43.858;25.974;2023-04-01T16:27:02;99635.56;;;17.58;58.11
42169;BME280;27838;43.858;25.974;2023-04-01T16:32:44;99650.34;;;17.62;58.62
42169;BME280;27838;43.858;25.974;2023-04-01T16:38:20;99654.09;;;17.56;59.02
42169;BME280;27838;43.858;25.974;2023-04-01T16:43:50;99647.50;;;17.47;59.99
42169;BME280;27838;43.858;25.974;2023-04-01T16:56:55;99650.03;;;17.30;62.31
42169;BME280;27838;43.858;25.974;2023-04-01T16:59:29;99625.69;;;17.25;62.43
42169;BME280;27838;43.858;25.974;2023-04-01T17:04:48;99631.94;;;17.22;62.80
42169;BME280;27838;43.858;25.974;2023-04-01T17:12:50;99643.72;;;17.13;63.81
42169;BME280;27838;43.858;25.974;2023-04-01T17:20:46;99626.13;;;17.14;63.17
42169;BME280;27838;43.858;25.974;2023-04-01T17:26:06;99621.69;;;17.16;62.99
42169;BME280;27838;43.858;25.974;2023-04-01T17:31:48;99618.53;;;17.08;62.74
42169;BME280;27838;43.858;25.974;2023-04-01T17:37:20;99622.94;;;17.07;63.08
42169;BME280;27838;43.858;25.974;2023-04-01T17:40:21;99623.94;;;17.05;63.17
42169;BME280;27838;43.858;25.974;2023-04-01T17:45:58;99628.09;;;16.90;63.68
42169;BME280;27838;43.858;25.974;2023-04-01T17:48:38;99638.00;;;16.83;64.48
42169;BME280;27838;43.858;25.974;2023-04-01T17:51:14;99629.38;;;16.79;64.52
42169;BME280;27838;43.858;25.974;2023-04-01T17:53:54;99626.75;;;16.79;64.41
42169;BME280;27838;43.858;25.974;2023-04-01T17:59:37;99619.66;;;16.82;63.58
42169;BME280;27838;43.858;25.974;2023-04-01T18:05:34;99627.53;;;16.82;63.45
42169;BME280;27838;43.858;25.974;2023-04-01T18:08:15;99646.03;;;16.80;63.35
42169;BME280;27838;43.858;25.974;2023-04-01T18:11:11;99648.00;;;16.75;63.52
42169;BME280;27838;43.858;25.974;2023-04-01T18:14:11;99643.19;;;16.64;63.55
42169;BME280;27838;43.858;25.974;2023-04-01T18:17:38;99641.63;;;16.60;64.17
42169;BME280;27838;43.858;25.974;2023-04-01T18:22:47;99629.78;;;16.50;64.22
42169;BME280;27838;43.858;25.974;2023-04-01T18:25:28;99631.22;;;16.57;64.33
42169;BME280;27838;43.858;25.974;2023-04-01T18:30:51;99651.47;;;16.55;64.17
42169;BME280;27838;43.858;25.974;2023-04-01T18:33:25;99653.16;;;16.56;63.73
42169;BME280;27838;43.858;25.974;2023-04-01T18:39:13;99662.13;;;16.52;63.75
42169;BME280;27838;43.858;25.974;2023-04-01T18:41:59;99666.38;;;16.54;63.57
42169;BME280;27838;43.858;25.974;2023-04-01T18:44:46;99674.34;;;16.53;63.40
42169;BME280;27838;43.858;25.974;2023-04-01T18:47:21;99675.28;;;16.52;63.42
42169;BME280;27838;43.858;25.974;2023-04-01T18:50:02;99679.59;;;16.53;63.21
42169;BME280;27838;43.858;25.974;2023-04-01T18:52:40;99678.28;;;16.42;62.96
42169;BME280;27838;43.858;25.974;2023-04-01T18:57:50;99693.06;;;16.23;63.68
42169;BME280;27838;43.858;25.974;2023-04-01T19:03:17;99705.78;;;16.12;64.68
42169;BME280;27838;43.858;25.974;2023-04-01T19:05:49;99715.47;;;15.88;65.80
42169;BME280;27838;43.858;25.974;2023-04-01T19:08:40;99723.75;;;15.77;66.55
42169;BME280;27838;43.858;25.974;2023-04-01T19:19:06;99713.72;;;15.63;66.21
42169;BME280;27838;43.858;25.974;2023-04-01T19:21:44;99720.53;;;15.68;66.35
42169;BME280;27838;43.858;25.974;2023-04-01T19:24:38;99724.97;;;15.66;66.21
42169;BME280;27838;43.858;25.974;2023-04-01T19:30:14;99731.09;;;15.67;66.62
42169;BME280;27838;43.858;25.974;2023-04-01T19:35:57;99732.06;;;15.64;67.25
42169;BME280;27838;43.858;25.974;2023-04-01T19:41:29;99729.84;;;15.54;68.36
42169;BME280;27838;43.858;25.974;2023-04-01T19:52:26;99729.91;;;15.52;69.08
42169;BME280;27838;43.858;25.974;2023-04-01T20:01:10;99739.41;;;15.31;70.07
42169;BME280;27838;43.858;25.974;2023-04-01T20:03:46;99733.25;;;15.30;70.04
42169;BME280;27838;43.858;25.974;2023-04-01T20:10:30;99729.28;;;15.20;69.69
42169;BME280;27838;43.858;25.974;2023-04-01T20:15:30;99733.56;;;14.98;68.02
42169;BME280;27838;43.858;25.974;2023-04-01T20:18:00;99743.72;;;15.07;68.16
42169;BME280;27838;43.858;25.974;2023-04-01T20:20:30;99745.22;;;15.14;67.68
42169;BME280;27838;43.858;25.974;2023-04-01T20:23:06;99735.44;;;15.19;67.21
42169;BME280;27838;43.858;25.974;2023-04-01T20:25:43;99744.59;;;15.33;67.24
42169;BME280;27838;43.858;25.974;2023-04-01T20:31:03;99750.53;;;15.38;67.75
42169;BME280;27838;43.858;25.974;2023-04-01T20:42:49;99758.56;;;15.08;64.63
42169;BME280;27838;43.858;25.974;2023-04-01T20:45:48;99771.41;;;14.90;63.97
42169;BME280;27838;43.858;25.974;2023-04-01T20:51:30;99770.06;;;14.77;63.42
42169;BME280;27838;43.858;25.974;2023-04-01T20:54:34;99756.25;;;14.72;63.82
42169;BME280;27838;43.858;25.974;2023-04-01T20:57:35;99768.75;;;14.64;62.55
42169;BME280;27838;43.858;25.974;2023-04-01T21:00:31;99771.44;;;14.61;61.56
42169;BME280;27838;43.858;25.974;2023-04-01T21:11:24;99773.28;;;14.59;61.48
42169;BME280;27838;43.858;25.974;2023-04-01T21:14:34;99779.91;;;14.70;61.32
42169;BME280;27838;43.858;25.974;2023-04-01T21:17:17;99784.53;;;14.62;61.51
42169;BME280;27838;43.858;25.974;2023-04-01T21:26:00;99796.81;;;14.60;60.90
42169;BME280;27838;43.858;25.974;2023-04-01T21:32:26;99790.16;;;14.48;59.40
42169;BME280;27838;43.858;25.974;2023-04-01T21:34:54;99786.91;;;14.42;59.26
42169;BME280;27838;43.858;25.974;2023-04-01T21:42:47;99790.84;;;14.27;60.07
42169;BME280;27838;43.858;25.974;2023-04-01T21:50:53;99797.75;;;14.00;59.51
42169;BME280;27838;43.858;25.974;2023-04-01T22:04:50;99790.78;;;13.67;60.60
42169;BME280;27838;43.858;25.974;2023-04-01T22:07:31;99786.72;;;13.57;61.60
42169;BME280;27838;43.858;25.974;2023-04-01T22:13:06;99797.28;;;13.52;61.99
42169;BME280;27838;43.858;25.974;2023-04-01T22:18:34;99794.91;;;13.45;62.67
42169;BME280;27838;43.858;25.974;2023-04-01T22:21:12;99799.28;;;13.44;63.13
42169;BME280;27838;43.858;25.974;2023-04-01T22:24:02;99807.88;;;13.49;62.56
42169;BME280;27838;43.858;25.974;2023-04-01T22:26:58;99794.56;;;13.57;62.35
42169;BME280;27838;43.858;25.974;2023-04-01T22:32:45;99800.56;;;13.60;62.46
42169;BME280;27838;43.858;25.974;2023-04-01T22:44:13;99803.41;;;13.53;63.23
42169;BME280;27838;43.858;25.974;2023-04-01T22:47:04;99797.56;;;13.43;63.61
42169;BME280;27838;43.858;25.974;2023-04-01T22:50:45;99797.47;;;13.46;63.42
42169;BME280;27838;43.858;25.974;2023-04-01T22:55:33;99794.91;;;13.45;63.24
42169;BME280;27838;43.858;25.974;2023-04-01T22:58:17;99785.28;;;13.45;63.40
42169;BME280;27838;43.858;25.974;2023-04-01T23:00:48;99794.63;;;13.54;62.68
42169;BME280;27838;43.858;25.974;2023-04-01T23:03:33;99808.72;;;13.50;62.56
42169;BME280;27838;43.858;25.974;2023-04-01T23:06:02;99802.53;;;13.52;62.99
42169;BME280;27838;43.858;25.974;2023-04-01T23:11:16;99809.41;;;13.56;62.61
42169;BME280;27838;43.858;25.974;2023-04-01T23:13:49;99801.75;;;13.49;62.45
42169;BME280;27838;43.858;25.974;2023-04-01T23:16:25;99797.25;;;13.54;63.02